sensor_id;sensor_type;location;lat;lon;timestamp;P1;durP1;ratioP1;P2;durP2;ratioP2
40807;SDS011;26523;52.504;13.498;2023-09-18T00:00:45;8.32;;;4.93;;
40807;SDS011;26523;52.504;13.498;2023-09-18T00:03:11;15.45;;;6.03;;
40807;SDS011;26523;52.504;13.498;2023-09-18T00:05:37;9.65;;;5.85;;
40807;SDS011;26523;52.504;13.498;2023-09-18T00:08:03;9.75;;;5.90;;
40807;SDS011;26523;52.504;13.498;2023-09-18T00:10:29;12.02;;;5.90;;
40807;SDS011;26523;52.504;13.498;2023-09-18T00:12:56;9.70;;;6.20;;
40807;SDS011;26523;52.504;13.498;2023-09-18T00:15:22;10.55;;;5.80;;
40807;SDS011;26523;52.504;13.498;2023-09-18T00:17:48;15.38;;;6.65;;
40807;SDS011;26523;52.504;13.498;2023-09-18T00:20:14;9.57;;;6.20;;
40807;SDS011;26523;52.504;13.498;2023-09-18T00:22:42;10.23;;;5.82;;
40807;SDS011;26523;52.504;13.498;2023-09-18T00:25:08;9.93;;;5.88;;
40807;SDS011;26523;52.504;13.498;2023-09-18T00:27:33;10.27;;;5.80;;
40807;SDS011;26523;52.504;13.498;2023-09-18T00:30:01;9.15;;;5.35;;
40807;SDS011;26523;52.504;13.498;2023-09-18T00:32:28;8.70;;;5.40;;
40807;SDS011;26523;52.504;13.498;2023-09-18T00:34:54;10.15;;;5.72;;
40807;SDS011;26523;52.504;13.498;2023-09-18T00:37:20;8.98;;;5.30;;
40807;SDS011;26523;52.504;13.498;2023-09-18T00:39:46;10.27;;;5.60;;
40807;SDS011;26523;52.504;13.498;2023-09-18T00:42:13;8.38;;;5.68;;
40807;SDS011;26523;52.504;13.498;2023-09-18T00:44:40;9.10;;;5.25;;
40807;SDS011;26523;52.504;13.498;2023-09-18T00:47:07;11.95;;;6.15;;
40807;SDS011;26523;52.504;13.498;2023-09-18T00:49:33;8.93;;;5.28;;
40807;SDS011;26523;52.504;13.498;2023-09-18T00:52:00;8.45;;;5.50;;
40807;SDS011;26523;52.504;13.498;2023-09-18T00:54:26;10.13;;;5.75;;
40807;SDS011;26523;52.504;13.498;2023-09-18T00:56:51;9.52;;;5.53;;
40807;SDS011;26523;52.504;13.498;2023-09-18T00:59:20;8.32;;;5.38;;
40807;SDS011;26523;52.504;13.498;2023-09-18T01:01:46;10.18;;;5.43;;
40807;SDS011;26523;52.504;13.498;2023-09-18T01:04:16;11.00;;;6.13;;
40807;SDS011;26523;52.504;13.498;2023-09-18T01:06:42;9.48;;;5.97;;
40807;SDS011;26523;52.504;13.498;2023-09-18T01:09:08;9.60;;;5.93;;
40807;SDS011;26523;52.504;13.498;2023-09-18T01:11:51;10.48;;;5.47;;
40807;SDS011;26523;52.504;13.498;2023-09-18T01:17:37;8.93;;;5.85;;
40807;SDS011;26523;52.504;13.498;2023-09-18T01:20:08;13.85;;;6.30;;
40807;SDS011;26523;52.504;13.498;2023-09-18T01:22:35;11.40;;;6.22;;
40807;SDS011;26523;52.504;13.498;2023-09-18T01:25:02;8.65;;;5.53;;
40807;SDS011;26523;52.504;13.498;2023-09-18T01:27:28;9.10;;;5.38;;
40807;SDS011;26523;52.504;13.498;2023-09-18T01:29:54;9.10;;;6.05;;
40807;SDS011;26523;52.504;13.498;2023-09-18T01:32:19;9.90;;;6.10;;
40807;SDS011;26523;52.504;13.498;2023-09-18T01:34:50;9.63;;;5.68;;
40807;SDS011;26523;52.504;13.498;2023-09-18T01:37:19;8.40;;;5.63;;
40807;SDS011;26523;52.504;13.498;2023-09-18T01:39:50;9.80;;;5.65;;
40807;SDS011;26523;52.504;13.498;2023-09-18T01:42:17;8.77;;;5.60;;
40807;SDS011;26523;52.504;13.498;2023-09-18T01:44:43;13.48;;;5.45;;
40807;SDS011;26523;52.504;13.498;2023-09-18T01:47:11;10.88;;;5.40;;
40807;SDS011;26523;52.504;13.498;2023-09-18T01:49:40;9.23;;;5.72;;
40807;SDS011;26523;52.504;13.498;2023-09-18T01:52:07;9.32;;;5.28;;
40807;SDS011;26523;52.504;13.498;2023-09-18T01:54:34;8.55;;;5.35;;
40807;SDS011;26523;52.504;13.498;2023-09-18T01:57:00;9.15;;;5.78;;
40807;SDS011;26523;52.504;13.498;2023-09-18T01:59:28;9.00;;;5.22;;
40807;SDS011;26523;52.504;13.498;2023-09-18T02:01:54;9.05;;;5.57;;
40807;SDS011;26523;52.504;13.498;2023-09-18T02:04:20;9.32;;;5.13;;
40807;SDS011;26523;52.504;13.498;2023-09-18T02:06:48;8.63;;;5.40;;
40807;SDS011;26523;52.504;13.498;2023-09-18T02:09:16;7.93;;;4.85;;
40807;SDS011;26523;52.504;13.498;2023-09-18T02:11:43;7.75;;;4.85;;
40807;SDS011;26523;52.504;13.498;2023-09-18T02:14:10;9.43;;;5.65;;
40807;SDS011;26523;52.504;13.498;2023-09-18T02:16:40;8.80;;;5.50;;
40807;SDS011;26523;52.504;13.498;2023-09-18T02:19:10;9.25;;;5.40;;
40807;SDS011;26523;52.504;13.498;2023-09-18T02:21:47;11.27;;;6.20;;
40807;SDS011;26523;52.504;13.498;2023-09-18T02:24:13;10.43;;;5.25;;
40807;SDS011;26523;52.504;13.498;2023-09-18T02:26:38;8.90;;;5.18;;
40807;SDS011;26523;52.504;13.498;2023-09-18T02:29:07;8.93;;;5.13;;
40807;SDS011;26523;52.504;13.498;2023-09-18T02:31:36;10.43;;;5.53;;
40807;SDS011;26523;52.504;13.498;2023-09-18T02:34:02;9.85;;;5.75;;
40807;SDS011;26523;52.504;13.498;2023-09-18T02:36:28;9.50;;;5.25;;
40807;SDS011;26523;52.504;13.498;2023-09-18T02:38:53;8.40;;;4.97;;
40807;SDS011;26523;52.504;13.498;2023-09-18T02:41:20;7.97;;;5.03;;
40807;SDS011;26523;52.504;13.498;2023-09-18T02:43:46;14.13;;;5.97;;
40807;SDS011;26523;52.504;13.498;2023-09-18T02:46:12;10.50;;;5.50;;
40807;SDS011;26523;52.504;13.498;2023-09-18T02:48:37;9.13;;;5.70;;
40807;SDS011;26523;52.504;13.498;2023-09-18T02:51:04;19.90;;;6.03;;
40807;SDS011;26523;52.504;13.498;2023-09-18T02:53:33;11.10;;;5.38;;
40807;SDS011;26523;52.504;13.498;2023-09-18T02:55:59;9.65;;;5.53;;
40807;SDS011;26523;52.504;13.498;2023-09-18T02:58:24;8.55;;;5.43;;
40807;SDS011;26523;52.504;13.498;2023-09-18T03:00:51;10.82;;;5.47;;
40807;SDS011;26523;52.504;13.498;2023-09-18T03:03:18;8.00;;;5.22;;
40807;SDS011;26523;52.504;13.498;2023-09-18T03:05:44;8.93;;;4.93;;
40807;SDS011;26523;52.504;13.498;2023-09-18T03:08:12;8.98;;;5.32;;
40807;SDS011;26523;52.504;13.498;2023-09-18T03:10:39;9.27;;;5.53;;
40807;SDS011;26523;52.504;13.498;2023-09-18T03:13:08;9.80;;;5.40;;
40807;SDS011;26523;52.504;13.498;2023-09-18T03:15:35;10.63;;;5.55;;
40807;SDS011;26523;52.504;13.498;2023-09-18T03:18:02;7.22;;;4.35;;
40807;SDS011;26523;52.504;13.498;2023-09-18T03:20:29;8.70;;;5.40;;
40807;SDS011;26523;52.504;13.498;2023-09-18T03:22:59;8.15;;;4.95;;
40807;SDS011;26523;52.504;13.498;2023-09-18T03:25:26;10.52;;;5.78;;
40807;SDS011;26523;52.504;13.498;2023-09-18T03:27:53;11.57;;;6.07;;
40807;SDS011;26523;52.504;13.498;2023-09-18T03:30:20;7.75;;;5.05;;
40807;SDS011;26523;52.504;13.498;2023-09-18T03:32:48;9.57;;;5.40;;
40807;SDS011;26523;52.504;13.498;2023-09-18T03:35:14;8.00;;;5.13;;
40807;SDS011;26523;52.504;13.498;2023-09-18T03:37:44;8.60;;;4.95;;
40807;SDS011;26523;52.504;13.498;2023-09-18T03:40:14;9.02;;;5.32;;
40807;SDS011;26523;52.504;13.498;2023-09-18T03:42:42;9.93;;;4.95;;
40807;SDS011;26523;52.504;13.498;2023-09-18T03:45:08;8.23;;;4.95;;
40807;SDS011;26523;52.504;13.498;2023-09-18T03:47:34;9.40;;;5.75;;
40807;SDS011;26523;52.504;13.498;2023-09-18T03:50:04;12.30;;;5.38;;
40807;SDS011;26523;52.504;13.498;2023-09-18T03:52:31;12.65;;;6.38;;
40807;SDS011;26523;52.504;13.498;2023-09-18T03:54:56;11.60;;;5.28;;
40807;SDS011;26523;52.504;13.498;2023-09-18T03:57:22;9.45;;;4.85;;
40807;SDS011;26523;52.504;13.498;2023-09-18T03:59:49;8.43;;;5.13;;
40807;SDS011;26523;52.504;13.498;2023-09-18T04:02:14;9.27;;;5.15;;
40807;SDS011;26523;52.504;13.498;2023-09-18T04:04:40;9.13;;;5.38;;
40807;SDS011;26523;52.504;13.498;2023-09-18T04:07:06;10.52;;;5.80;;
40807;SDS011;26523;52.504;13.498;2023-09-18T04:09:32;9.75;;;5.50;;
40807;SDS011;26523;52.504;13.498;2023-09-18T04:11:59;9.93;;;5.70;;
40807;SDS011;26523;52.504;13.498;2023-09-18T04:14:30;9.63;;;5.18;;
40807;SDS011;26523;52.504;13.498;2023-09-18T04:16:58;8.40;;;5.38;;
40807;SDS011;26523;52.504;13.498;2023-09-18T04:19:25;9.35;;;5.53;;
40807;SDS011;26523;52.504;13.498;2023-09-18T04:21:52;8.88;;;5.07;;
40807;SDS011;26523;52.504;13.498;2023-09-18T04:24:18;11.13;;;5.40;;
40807;SDS011;26523;52.504;13.498;2023-09-18T04:26:44;9.95;;;5.22;;
40807;SDS011;26523;52.504;13.498;2023-09-18T04:29:10;10.00;;;5.90;;
40807;SDS011;26523;52.504;13.498;2023-09-18T04:31:36;9.45;;;5.35;;
40807;SDS011;26523;52.504;13.498;2023-09-18T04:34:03;9.20;;;5.43;;
40807;SDS011;26523;52.504;13.498;2023-09-18T04:36:29;8.45;;;5.07;;
40807;SDS011;26523;52.504;13.498;2023-09-18T04:38:54;8.75;;;5.35;;
40807;SDS011;26523;52.504;13.498;2023-09-18T04:41:21;12.30;;;5.18;;
40807;SDS011;26523;52.504;13.498;2023-09-18T04:43:48;11.88;;;4.88;;
40807;SDS011;26523;52.504;13.498;2023-09-18T04:46:14;9.27;;;5.45;;
40807;SDS011;26523;52.504;13.498;2023-09-18T04:48:39;9.77;;;5.78;;
40807;SDS011;26523;52.504;13.498;2023-09-18T04:51:05;7.53;;;4.78;;
40807;SDS011;26523;52.504;13.498;2023-09-18T04:53:32;10.65;;;5.15;;
40807;SDS011;26523;52.504;13.498;2023-09-18T04:55:57;9.52;;;5.50;;
40807;SDS011;26523;52.504;13.498;2023-09-18T04:58:24;8.13;;;5.10;;
40807;SDS011;26523;52.504;13.498;2023-09-18T05:00:59;10.48;;;5.40;;
40807;SDS011;26523;52.504;13.498;2023-09-18T05:03:25;11.35;;;5.80;;
40807;SDS011;26523;52.504;13.498;2023-09-18T05:05:52;8.77;;;5.10;;
40807;SDS011;26523;52.504;13.498;2023-09-18T05:08:18;9.93;;;5.43;;
40807;SDS011;26523;52.504;13.498;2023-09-18T05:10:46;11.52;;;6.32;;
40807;SDS011;26523;52.504;13.498;2023-09-18T05:13:13;10.88;;;5.97;;
40807;SDS011;26523;52.504;13.498;2023-09-18T05:15:40;10.50;;;6.50;;
40807;SDS011;26523;52.504;13.498;2023-09-18T05:18:07;9.85;;;5.30;;
40807;SDS011;26523;52.504;13.498;2023-09-18T05:20:34;9.63;;;5.70;;
40807;SDS011;26523;52.504;13.498;2023-09-18T05:23:00;8.43;;;5.88;;
40807;SDS011;26523;52.504;13.498;2023-09-18T05:25:29;9.60;;;5.60;;
40807;SDS011;26523;52.504;13.498;2023-09-18T05:28:00;9.88;;;5.70;;
40807;SDS011;26523;52.504;13.498;2023-09-18T05:30:26;9.13;;;5.22;;
40807;SDS011;26523;52.504;13.498;2023-09-18T05:32:57;10.45;;;5.75;;
40807;SDS011;26523;52.504;13.498;2023-09-18T05:35:29;11.45;;;6.07;;
40807;SDS011;26523;52.504;13.498;2023-09-18T05:37:58;8.20;;;4.63;;
40807;SDS011;26523;52.504;13.498;2023-09-18T05:40:24;10.30;;;5.65;;
40807;SDS011;26523;52.504;13.498;2023-09-18T05:42:53;7.38;;;4.78;;
40807;SDS011;26523;52.504;13.498;2023-09-18T05:45:20;7.45;;;5.15;;
40807;SDS011;26523;52.504;13.498;2023-09-18T05:47:45;8.25;;;4.90;;
40807;SDS011;26523;52.504;13.498;2023-09-18T05:50:12;15.13;;;5.30;;
40807;SDS011;26523;52.504;13.498;2023-09-18T05:52:39;10.43;;;5.47;;
40807;SDS011;26523;52.504;13.498;2023-09-18T05:55:05;11.05;;;4.90;;
40807;SDS011;26523;52.504;13.498;2023-09-18T05:57:33;10.57;;;5.10;;
40807;SDS011;26523;52.504;13.498;2023-09-18T05:59:59;13.18;;;6.15;;
40807;SDS011;26523;52.504;13.498;2023-09-18T06:02:26;12.30;;;5.03;;
40807;SDS011;26523;52.504;13.498;2023-09-18T06:04:55;8.65;;;5.07;;
40807;SDS011;26523;52.504;13.498;2023-09-18T06:07:28;7.30;;;4.43;;
40807;SDS011;26523;52.504;13.498;2023-09-18T06:10:08;6.90;;;4.72;;
40807;SDS011;26523;52.504;13.498;2023-09-18T06:12:37;8.05;;;5.00;;
40807;SDS011;26523;52.504;13.498;2023-09-18T06:15:06;7.00;;;4.50;;
40807;SDS011;26523;52.504;13.498;2023-09-18T06:17:35;7.40;;;4.65;;
40807;SDS011;26523;52.504;13.498;2023-09-18T06:20:05;7.60;;;4.22;;
40807;SDS011;26523;52.504;13.498;2023-09-18T06:22:36;11.30;;;4.80;;
40807;SDS011;26523;52.504;13.498;2023-09-18T06:25:03;8.35;;;4.97;;
40807;SDS011;26523;52.504;13.498;2023-09-18T06:27:35;7.55;;;4.65;;
40807;SDS011;26523;52.504;13.498;2023-09-18T06:30:01;8.55;;;4.35;;
40807;SDS011;26523;52.504;13.498;2023-09-18T06:32:32;11.00;;;5.30;;
40807;SDS011;26523;52.504;13.498;2023-09-18T06:34:58;9.02;;;4.50;;
40807;SDS011;26523;52.504;13.498;2023-09-18T06:37:25;10.52;;;4.65;;
40807;SDS011;26523;52.504;13.498;2023-09-18T06:39:51;9.48;;;4.93;;
40807;SDS011;26523;52.504;13.498;2023-09-18T06:42:17;12.40;;;5.30;;
40807;SDS011;26523;52.504;13.498;2023-09-18T06:44:42;6.82;;;4.40;;
40807;SDS011;26523;52.504;13.498;2023-09-18T06:47:08;10.95;;;4.22;;
40807;SDS011;26523;52.504;13.498;2023-09-18T06:49:34;8.35;;;4.78;;
40807;SDS011;26523;52.504;13.498;2023-09-18T06:52:00;6.60;;;4.45;;
40807;SDS011;26523;52.504;13.498;2023-09-18T06:54:25;7.78;;;4.90;;
40807;SDS011;26523;52.504;13.498;2023-09-18T06:56:51;8.48;;;4.80;;
40807;SDS011;26523;52.504;13.498;2023-09-18T06:59:16;8.75;;;4.60;;
40807;SDS011;26523;52.504;13.498;2023-09-18T07:01:42;8.05;;;4.57;;
40807;SDS011;26523;52.504;13.498;2023-09-18T07:04:08;5.95;;;3.95;;
40807;SDS011;26523;52.504;13.498;2023-09-18T07:06:34;11.23;;;5.00;;
40807;SDS011;26523;52.504;13.498;2023-09-18T07:09:00;6.53;;;3.70;;
40807;SDS011;26523;52.504;13.498;2023-09-18T07:11:29;7.20;;;3.95;;
40807;SDS011;26523;52.504;13.498;2023-09-18T07:13:55;7.78;;;4.05;;
40807;SDS011;26523;52.504;13.498;2023-09-18T07:16:21;5.70;;;3.67;;
40807;SDS011;26523;52.504;13.498;2023-09-18T07:18:47;7.55;;;3.85;;
40807;SDS011;26523;52.504;13.498;2023-09-18T07:21:12;7.60;;;4.05;;
40807;SDS011;26523;52.504;13.498;2023-09-18T07:23:40;7.35;;;4.05;;
40807;SDS011;26523;52.504;13.498;2023-09-18T07:26:05;7.30;;;4.18;;
40807;SDS011;26523;52.504;13.498;2023-09-18T07:28:31;8.90;;;3.72;;
40807;SDS011;26523;52.504;13.498;2023-09-18T07:31:04;16.50;;;4.53;;
40807;SDS011;26523;52.504;13.498;2023-09-18T07:33:30;6.45;;;3.78;;
40807;SDS011;26523;52.504;13.498;2023-09-18T07:35:57;6.80;;;3.85;;
40807;SDS011;26523;52.504;13.498;2023-09-18T07:38:22;5.47;;;3.75;;
40807;SDS011;26523;52.504;13.498;2023-09-18T07:40:50;7.50;;;3.38;;
40807;SDS011;26523;52.504;13.498;2023-09-18T07:43:15;7.38;;;3.25;;
40807;SDS011;26523;52.504;13.498;2023-09-18T07:45:42;7.32;;;3.28;;
40807;SDS011;26523;52.504;13.498;2023-09-18T07:48:08;5.22;;;3.03;;
40807;SDS011;26523;52.504;13.498;2023-09-18T07:50:34;6.57;;;3.58;;
40807;SDS011;26523;52.504;13.498;2023-09-18T07:53:00;8.50;;;3.85;;
40807;SDS011;26523;52.504;13.498;2023-09-18T07:55:28;4.78;;;2.92;;
40807;SDS011;26523;52.504;13.498;2023-09-18T07:57:56;5.00;;;3.30;;
40807;SDS011;26523;52.504;13.498;2023-09-18T08:00:21;7.63;;;3.08;;
40807;SDS011;26523;52.504;13.498;2023-09-18T08:02:47;5.60;;;3.40;;
40807;SDS011;26523;52.504;13.498;2023-09-18T08:05:20;11.00;;;3.30;;
40807;SDS011;26523;52.504;13.498;2023-09-18T08:07:46;8.02;;;3.13;;
40807;SDS011;26523;52.504;13.498;2023-09-18T08:10:13;6.00;;;2.67;;
40807;SDS011;26523;52.504;13.498;2023-09-18T08:12:38;4.90;;;2.97;;
40807;SDS011;26523;52.504;13.498;2023-09-18T08:15:04;5.85;;;2.90;;
40807;SDS011;26523;52.504;13.498;2023-09-18T08:17:31;6.22;;;2.78;;
40807;SDS011;26523;52.504;13.498;2023-09-18T08:19:57;4.25;;;2.88;;
40807;SDS011;26523;52.504;13.498;2023-09-18T08:22:23;6.82;;;3.55;;
40807;SDS011;26523;52.504;13.498;2023-09-18T08:24:49;5.63;;;3.40;;
40807;SDS011;26523;52.504;13.498;2023-09-18T08:27:17;8.43;;;3.10;;
40807;SDS011;26523;52.504;13.498;2023-09-18T08:29:44;6.63;;;3.40;;
40807;SDS011;26523;52.504;13.498;2023-09-18T08:32:11;4.90;;;2.95;;
40807;SDS011;26523;52.504;13.498;2023-09-18T08:34:36;5.38;;;2.67;;
40807;SDS011;26523;52.504;13.498;2023-09-18T08:37:02;5.38;;;2.80;;
40807;SDS011;26523;52.504;13.498;2023-09-18T08:39:28;5.75;;;3.53;;
40807;SDS011;26523;52.504;13.498;2023-09-18T08:41:57;5.32;;;3.42;;
40807;SDS011;26523;52.504;13.498;2023-09-18T08:44:27;5.85;;;2.90;;
40807;SDS011;26523;52.504;13.498;2023-09-18T08:46:56;4.28;;;2.58;;
40807;SDS011;26523;52.504;13.498;2023-09-18T08:49:23;6.55;;;3.58;;
40807;SDS011;26523;52.504;13.498;2023-09-18T08:51:53;5.05;;;2.80;;
40807;SDS011;26523;52.504;13.498;2023-09-18T08:54:21;4.40;;;2.80;;
40807;SDS011;26523;52.504;13.498;2023-09-18T08:56:48;4.38;;;2.92;;
40807;SDS011;26523;52.504;13.498;2023-09-18T08:59:15;6.60;;;2.75;;
40807;SDS011;26523;52.504;13.498;2023-09-18T09:01:41;3.63;;;2.72;;
40807;SDS011;26523;52.504;13.498;2023-09-18T09:04:08;4.45;;;2.83;;
40807;SDS011;26523;52.504;13.498;2023-09-18T09:06:34;6.40;;;3.58;;
40807;SDS011;26523;52.504;13.498;2023-09-18T09:09:01;7.10;;;3.05;;
40807;SDS011;26523;52.504;13.498;2023-09-18T09:11:27;5.00;;;3.08;;
40807;SDS011;26523;52.504;13.498;2023-09-18T09:14:12;4.65;;;2.88;;
40807;SDS011;26523;52.504;13.498;2023-09-18T09:16:53;5.28;;;3.28;;
40807;SDS011;26523;52.504;13.498;2023-09-18T09:19:27;6.03;;;3.05;;
40807;SDS011;26523;52.504;13.498;2023-09-18T09:21:55;4.43;;;3.22;;
40807;SDS011;26523;52.504;13.498;2023-09-18T09:27:05;5.68;;;3.00;;
40807;SDS011;26523;52.504;13.498;2023-09-18T09:29:30;3.92;;;2.70;;
40807;SDS011;26523;52.504;13.498;2023-09-18T09:31:56;4.22;;;2.80;;
40807;SDS011;26523;52.504;13.498;2023-09-18T09:34:36;4.88;;;2.97;;
40807;SDS011;26523;52.504;13.498;2023-09-18T09:37:03;6.68;;;3.35;;
40807;SDS011;26523;52.504;13.498;2023-09-18T09:39:29;4.93;;;2.70;;
40807;SDS011;26523;52.504;13.498;2023-09-18T09:41:55;6.72;;;2.80;;
40807;SDS011;26523;52.504;13.498;2023-09-18T09:44:26;4.30;;;2.40;;
40807;SDS011;26523;52.504;13.498;2023-09-18T09:46:53;3.25;;;2.15;;
40807;SDS011;26523;52.504;13.498;2023-09-18T09:49:19;4.15;;;2.47;;
40807;SDS011;26523;52.504;13.498;2023-09-18T09:51:48;4.03;;;2.53;;
40807;SDS011;26523;52.504;13.498;2023-09-18T09:54:16;5.93;;;3.10;;
40807;SDS011;26523;52.504;13.498;2023-09-18T09:56:59;4.28;;;2.55;;
40807;SDS011;26523;52.504;13.498;2023-09-18T09:59:28;7.28;;;2.90;;
40807;SDS011;26523;52.504;13.498;2023-09-18T10:01:54;7.90;;;3.17;;
40807;SDS011;26523;52.504;13.498;2023-09-18T10:04:23;4.70;;;2.70;;
40807;SDS011;26523;52.504;13.498;2023-09-18T10:06:52;6.30;;;3.40;;
40807;SDS011;26523;52.504;13.498;2023-09-18T10:09:23;4.55;;;2.70;;
40807;SDS011;26523;52.504;13.498;2023-09-18T10:11:54;6.63;;;2.97;;
40807;SDS011;26523;52.504;13.498;2023-09-18T10:14:31;3.88;;;2.60;;
40807;SDS011;26523;52.504;13.498;2023-09-18T10:17:04;5.20;;;2.90;;
40807;SDS011;26523;52.504;13.498;2023-09-18T10:19:40;5.95;;;2.90;;
40807;SDS011;26523;52.504;13.498;2023-09-18T10:22:21;6.50;;;2.97;;
40807;SDS011;26523;52.504;13.498;2023-09-18T10:25:12;6.90;;;2.92;;
40807;SDS011;26523;52.504;13.498;2023-09-18T10:27:45;4.63;;;2.60;;
40807;SDS011;26523;52.504;13.498;2023-09-18T10:30:15;5.25;;;2.78;;
40807;SDS011;26523;52.504;13.498;2023-09-18T10:32:44;7.40;;;2.72;;
40807;SDS011;26523;52.504;13.498;2023-09-18T10:35:11;4.88;;;3.00;;
40807;SDS011;26523;52.504;13.498;2023-09-18T10:37:38;4.68;;;2.80;;
40807;SDS011;26523;52.504;13.498;2023-09-18T10:40:09;6.07;;;3.38;;
40807;SDS011;26523;52.504;13.498;2023-09-18T10:42:35;7.68;;;3.10;;
40807;SDS011;26523;52.504;13.498;2023-09-18T10:45:04;6.28;;;3.17;;
40807;SDS011;26523;52.504;13.498;2023-09-18T10:47:31;7.97;;;2.85;;
40807;SDS011;26523;52.504;13.498;2023-09-18T10:49:57;5.88;;;2.83;;
40807;SDS011;26523;52.504;13.498;2023-09-18T10:52:24;4.45;;;2.75;;
40807;SDS011;26523;52.504;13.498;2023-09-18T10:54:54;6.97;;;2.70;;
40807;SDS011;26523;52.504;13.498;2023-09-18T10:57:20;6.53;;;2.40;;
40807;SDS011;26523;52.504;13.498;2023-09-18T10:59:47;3.83;;;2.05;;
40807;SDS011;26523;52.504;13.498;2023-09-18T11:02:16;7.82;;;2.92;;
40807;SDS011;26523;52.504;13.498;2023-09-18T11:04:43;6.85;;;2.80;;
40807;SDS011;26523;52.504;13.498;2023-09-18T11:07:18;6.18;;;3.33;;
40807;SDS011;26523;52.504;13.498;2023-09-18T11:09:49;6.30;;;3.80;;
40807;SDS011;26523;52.504;13.498;2023-09-18T11:12:16;6.90;;;2.95;;
40807;SDS011;26523;52.504;13.498;2023-09-18T11:20:08;7.30;;;2.63;;
40807;SDS011;26523;52.504;13.498;2023-09-18T11:25:58;4.13;;;2.85;;
40807;SDS011;26523;52.504;13.498;2023-09-18T11:28:32;4.82;;;2.90;;
40807;SDS011;26523;52.504;13.498;2023-09-18T11:30:58;6.13;;;3.33;;
40807;SDS011;26523;52.504;13.498;2023-09-18T11:33:35;7.70;;;2.60;;
40807;SDS011;26523;52.504;13.498;2023-09-18T11:36:05;4.55;;;2.50;;
40807;SDS011;26523;52.504;13.498;2023-09-18T11:38:56;6.32;;;2.72;;
40807;SDS011;26523;52.504;13.498;2023-09-18T11:41:35;8.57;;;2.78;;
40807;SDS011;26523;52.504;13.498;2023-09-18T11:46:39;10.48;;;2.90;;
40807;SDS011;26523;52.504;13.498;2023-09-18T11:49:09;7.70;;;3.15;;
40807;SDS011;26523;52.504;13.498;2023-09-18T11:51:37;4.95;;;3.13;;
40807;SDS011;26523;52.504;13.498;2023-09-18T11:54:03;4.75;;;2.85;;
40807;SDS011;26523;52.504;13.498;2023-09-18T11:56:32;4.90;;;3.10;;
40807;SDS011;26523;52.504;13.498;2023-09-18T11:58:58;4.47;;;2.53;;
40807;SDS011;26523;52.504;13.498;2023-09-18T12:01:25;6.85;;;2.90;;
40807;SDS011;26523;52.504;13.498;2023-09-18T12:03:55;3.40;;;2.50;;
40807;SDS011;26523;52.504;13.498;2023-09-18T12:08:52;6.88;;;3.17;;
40807;SDS011;26523;52.504;13.498;2023-09-18T12:11:18;5.93;;;2.97;;
40807;SDS011;26523;52.504;13.498;2023-09-18T12:13:45;6.00;;;3.15;;
40807;SDS011;26523;52.504;13.498;2023-09-18T12:16:19;8.88;;;3.63;;
40807;SDS011;26523;52.504;13.498;2023-09-18T12:18:48;7.85;;;3.05;;
40807;SDS011;26523;52.504;13.498;2023-09-18T12:21:31;4.78;;;2.90;;
40807;SDS011;26523;52.504;13.498;2023-09-18T12:23:57;6.80;;;3.13;;
40807;SDS011;26523;52.504;13.498;2023-09-18T12:26:24;7.75;;;3.00;;
40807;SDS011;26523;52.504;13.498;2023-09-18T12:28:51;5.68;;;2.90;;
40807;SDS011;26523;52.504;13.498;2023-09-18T12:31:17;5.40;;;3.33;;
40807;SDS011;26523;52.504;13.498;2023-09-18T12:33:43;5.60;;;2.75;;
40807;SDS011;26523;52.504;13.498;2023-09-18T12:36:09;8.23;;;3.15;;
40807;SDS011;26523;52.504;13.498;2023-09-18T12:38:36;4.93;;;2.63;;
40807;SDS011;26523;52.504;13.498;2023-09-18T12:41:03;5.78;;;2.85;;
40807;SDS011;26523;52.504;13.498;2023-09-18T12:43:35;5.25;;;2.47;;
40807;SDS011;26523;52.504;13.498;2023-09-18T12:46:02;7.00;;;3.05;;
40807;SDS011;26523;52.504;13.498;2023-09-18T12:48:37;5.07;;;3.00;;
40807;SDS011;26523;52.504;13.498;2023-09-18T12:51:07;6.45;;;2.88;;
40807;SDS011;26523;52.504;13.498;2023-09-18T12:53:33;5.80;;;2.83;;
40807;SDS011;26523;52.504;13.498;2023-09-18T12:56:09;8.45;;;4.55;;
40807;SDS011;26523;52.504;13.498;2023-09-18T12:58:38;7.75;;;3.45;;
40807;SDS011;26523;52.504;13.498;2023-09-18T13:01:05;8.73;;;3.35;;
40807;SDS011;26523;52.504;13.498;2023-09-18T13:03:44;6.55;;;3.20;;
40807;SDS011;26523;52.504;13.498;2023-09-18T13:06:12;6.35;;;3.70;;
40807;SDS011;26523;52.504;13.498;2023-09-18T13:08:42;5.85;;;2.75;;
40807;SDS011;26523;52.504;13.498;2023-09-18T13:11:09;5.65;;;3.03;;
40807;SDS011;26523;52.504;13.498;2023-09-18T13:13:38;5.10;;;2.75;;
40807;SDS011;26523;52.504;13.498;2023-09-18T13:16:05;8.23;;;2.60;;
40807;SDS011;26523;52.504;13.498;2023-09-18T13:18:36;8.43;;;2.92;;
40807;SDS011;26523;52.504;13.498;2023-09-18T13:21:11;5.47;;;2.75;;
40807;SDS011;26523;52.504;13.498;2023-09-18T13:23:38;7.03;;;2.85;;
40807;SDS011;26523;52.504;13.498;2023-09-18T13:26:05;15.10;;;3.80;;
40807;SDS011;26523;52.504;13.498;2023-09-18T13:28:32;7.35;;;4.00;;
40807;SDS011;26523;52.504;13.498;2023-09-18T13:31:00;6.22;;;2.88;;
40807;SDS011;26523;52.504;13.498;2023-09-18T13:33:33;6.43;;;3.38;;
40807;SDS011;26523;52.504;13.498;2023-09-18T13:36:03;8.35;;;3.13;;
40807;SDS011;26523;52.504;13.498;2023-09-18T13:38:29;14.70;;;3.15;;
40807;SDS011;26523;52.504;13.498;2023-09-18T13:40:56;5.13;;;2.33;;
40807;SDS011;26523;52.504;13.498;2023-09-18T13:43:22;10.50;;;5.43;;
40807;SDS011;26523;52.504;13.498;2023-09-18T13:45:48;7.80;;;3.65;;
40807;SDS011;26523;52.504;13.498;2023-09-18T13:48:20;12.05;;;3.65;;
40807;SDS011;26523;52.504;13.498;2023-09-18T13:50:46;9.85;;;2.95;;
40807;SDS011;26523;52.504;13.498;2023-09-18T13:53:13;5.97;;;3.33;;
40807;SDS011;26523;52.504;13.498;2023-09-18T13:55:39;6.70;;;2.95;;
40807;SDS011;26523;52.504;13.498;2023-09-18T13:58:05;5.90;;;3.15;;
40807;SDS011;26523;52.504;13.498;2023-09-18T14:00:31;5.47;;;2.95;;
40807;SDS011;26523;52.504;13.498;2023-09-18T14:02:58;8.95;;;3.17;;
40807;SDS011;26523;52.504;13.498;2023-09-18T14:05:24;4.80;;;2.75;;
40807;SDS011;26523;52.504;13.498;2023-09-18T14:07:51;9.23;;;3.60;;
40807;SDS011;26523;52.504;13.498;2023-09-18T14:10:22;8.80;;;3.70;;
40807;SDS011;26523;52.504;13.498;2023-09-18T14:12:48;8.05;;;3.50;;
40807;SDS011;26523;52.504;13.498;2023-09-18T14:15:16;10.70;;;3.53;;
40807;SDS011;26523;52.504;13.498;2023-09-18T14:17:43;7.25;;;3.10;;
40807;SDS011;26523;52.504;13.498;2023-09-18T14:20:09;9.07;;;3.03;;
40807;SDS011;26523;52.504;13.498;2023-09-18T14:22:35;5.90;;;2.90;;
40807;SDS011;26523;52.504;13.498;2023-09-18T14:25:02;8.68;;;3.08;;
40807;SDS011;26523;52.504;13.498;2023-09-18T14:27:33;8.02;;;3.30;;
40807;SDS011;26523;52.504;13.498;2023-09-18T14:30:00;6.47;;;3.13;;
40807;SDS011;26523;52.504;13.498;2023-09-18T14:32:31;8.27;;;3.38;;
40807;SDS011;26523;52.504;13.498;2023-09-18T14:34:57;5.82;;;2.90;;
40807;SDS011;26523;52.504;13.498;2023-09-18T14:37:27;9.25;;;3.53;;
40807;SDS011;26523;52.504;13.498;2023-09-18T14:39:53;6.95;;;2.97;;
40807;SDS011;26523;52.504;13.498;2023-09-18T14:42:19;7.38;;;3.20;;
40807;SDS011;26523;52.504;13.498;2023-09-18T14:44:45;9.45;;;4.32;;
40807;SDS011;26523;52.504;13.498;2023-09-18T14:47:13;10.73;;;3.40;;
40807;SDS011;26523;52.504;13.498;2023-09-18T14:49:38;8.80;;;3.03;;
40807;SDS011;26523;52.504;13.498;2023-09-18T14:52:05;8.18;;;2.90;;
40807;SDS011;26523;52.504;13.498;2023-09-18T14:54:34;8.48;;;2.80;;